Time;durP1;ratioP1;P1;durP2;ratioP2;P2;SDS_P1;SDS_P2;PMS_P1;PMS_P2;Temp;Humidity;BMP_temperature;BMP_pressure;BME280_temperature;BME280_humidity;BME280_pressure;Samples;Min_cycle;Max_cycle;Signal;HPM_P1;HPM_P2
2023/07/27 00:02:25;;;;;;;5.45;1.80;;;15.40;99.90;;;;;;5027428;28;20186;-83
2023/07/27 00:04:53;;;;;;;6.38;1.65;;;15.40;99.90;;;;;;5026883;28;20194;-83
2023/07/27 00:07:21;;;;;;;5.72;1.70;;;15.40;99.90;;;;;;5026931;28;20667;-83
2023/07/27 00:09:48;;;;;;;4.65;1.40;;;15.50;99.90;;;;;;5025474;28;20190;-83
2023/07/27 00:12:16;;;;;;;7.13;2.28;;;15.50;99.90;;;;;;5021894;28;20715;-83
2023/07/27 00:14:44;;;;;;;5.07;1.98;;;15.40;99.90;;;;;;5013927;28;20190;-83
2023/07/27 00:17:11;;;;;;;9.30;2.38;;;15.40;99.90;;;;;;5027217;28;20209;-83
2023/07/27 00:19:39;;;;;;;6.00;1.98;;;15.20;99.90;;;;;;5041994;28;20186;-82
2023/07/27 00:22:07;;;;;;;3.67;1.55;;;15.10;99.90;;;;;;5027038;28;20190;-83
2023/07/27 00:24:35;;;;;;;7.45;2.35;;;15.10;99.90;;;;;;5024827;28;20196;-83
2023/07/27 00:27:03;;;;;;;8.10;2.00;;;15.00;99.90;;;;;;5025181;28;20186;-84
2023/07/27 00:29:30;;;;;;;2.90;1.52;;;15.00;99.90;;;;;;5025610;28;20852;-83
2023/07/27 00:31:58;;;;;;;3.78;2.20;;;15.00;99.90;;;;;;5024863;28;20201;-83
2023/07/27 00:34:26;;;;;;;4.03;2.25;;;14.90;99.90;;;;;;5026465;28;20190;-84
2023/07/27 00:36:53;;;;;;;4.22;1.65;;;14.90;99.90;;;;;;5026312;28;20210;-84
2023/07/27 00:39:22;;;;;;;5.55;1.65;;;15.00;99.90;;;;;;5026972;28;20186;-83
2023/07/27 00:41:49;;;;;;;6.38;2.13;;;15.20;99.90;;;;;;5024770;28;20273;-83
2023/07/27 00:44:17;;;;;;;7.15;2.30;;;15.20;99.90;;;;;;5025877;28;20267;-83
2023/07/27 00:46:45;;;;;;;6.07;2.45;;;15.10;99.90;;;;;;5008479;28;20710;-83
2023/07/27 00:49:13;;;;;;;4.22;1.67;;;15.00;99.90;;;;;;5016392;28;20210;-83
2023/07/27 00:51:43;;;;;;;4.32;1.65;;;15.00;99.90;;;;;;5026547;28;20186;-83
2023/07/27 00:54:12;;;;;;;5.28;2.05;;;15.00;99.90;;;;;;5024646;28;20190;-83
2023/07/27 00:56:39;;;;;;;9.05;2.90;;;15.00;99.90;;;;;;5026078;28;20269;-83
2023/07/27 00:59:07;;;;;;;6.07;2.17;;;15.00;99.90;;;;;;5027390;28;20210;-82
2023/07/27 01:01:35;;;;;;;6.72;2.10;;;15.00;99.90;;;;;;5026006;28;20663;-84
2023/07/27 01:04:04;;;;;;;4.63;2.03;;;15.00;99.90;;;;;;5024520;28;20196;-83
2023/07/27 01:06:31;;;;;;;5.68;2.28;;;14.90;99.90;;;;;;5025865;28;20716;-83
2023/07/27 01:09:01;;;;;;;7.97;2.30;;;14.90;99.90;;;;;;5021283;28;20209;-83
2023/07/27 01:11:32;;;;;;;2.92;1.63;;;14.90;99.90;;;;;;5026123;28;20194;-83
2023/07/27 01:14:18;;;;;;;6.53;2.53;;;14.80;99.90;;;;;;5035167;28;20941;-83
2023/07/27 01:16:57;;;;;;;3.95;1.90;;;14.70;99.90;;;;;;5026029;28;20192;-83
2023/07/27 01:20:04;;;;;;;3.80;1.50;;;14.70;99.90;;;;;;5025755;28;20230;-83
2023/07/27 01:22:31;;;;;;;5.07;2.08;;;14.80;99.90;;;;;;5025480;28;20648;-83
2023/07/27 01:25:20;;;;;;;8.05;2.10;;;14.90;99.90;;;;;;5026423;28;20178;-84
2023/07/27 01:28:16;;;;;;;4.95;2.05;;;15.00;99.90;;;;;;5032986;28;20194;-83
2023/07/27 01:30:51;;;;;;;8.23;2.05;;;15.00;99.90;;;;;;5030891;28;20539;-83
2023/07/27 01:33:30;;;;;;;10.00;2.40;;;14.90;99.90;;;;;;5013237;28;20734;-82
2023/07/27 01:36:11;;;;;;;5.20;2.05;;;14.90;99.90;;;;;;5010687;28;20766;-83
2023/07/27 01:38:44;;;;;;;6.22;1.90;;;14.90;99.90;;;;;;5020141;28;20288;-83
2023/07/27 01:41:13;;;;;;;3.45;1.90;;;14.90;99.90;;;;;;5036090;28;20254;-83
2023/07/27 01:43:42;;;;;;;4.47;1.77;;;14.90;99.90;;;;;;5033901;28;20714;-84
2023/07/27 01:46:12;;;;;;;6.38;1.20;;;14.90;99.90;;;;;;5028965;28;20548;-83
2023/07/27 01:48:41;;;;;;;5.88;1.60;;;14.90;99.90;;;;;;5021876;28;20199;-83
2023/07/27 01:51:12;;;;;;;5.93;1.85;;;15.00;99.90;;;;;;5029295;27;20213;-84
2023/07/27 01:53:42;;;;;;;7.38;2.05;;;14.90;99.90;;;;;;5024647;28;20194;-84
2023/07/27 01:56:12;;;;;;;3.83;1.90;;;14.80;99.90;;;;;;5026321;28;20209;-84
2023/07/27 01:58:41;;;;;;;7.50;2.08;;;14.80;99.90;;;;;;5028955;28;20609;-84
2023/07/27 02:01:09;;;;;;;8.23;1.98;;;14.80;99.90;;;;;;5028441;28;20638;-83
2023/07/27 02:03:37;;;;;;;7.13;1.80;;;14.70;99.90;;;;;;5082378;27;20944;-84
2023/07/27 02:06:04;;;;;;;4.38;1.90;;;14.70;99.90;;;;;;5028719;28;20239;-84
2023/07/27 02:08:32;;;;;;;2.95;1.52;;;14.80;99.90;;;;;;5020191;28;20198;-84
2023/07/27 02:11:05;;;;;;;6.25;1.48;;;14.70;99.90;;;;;;5027242;28;20190;-83
2023/07/27 02:13:53;;;;;;;7.35;2.00;;;14.60;99.90;;;;;;5028860;28;20209;-83
2023/07/27 02:16:50;;;;;;;5.50;2.10;;;14.60;99.90;;;;;;5027412;28;20256;-84
2023/07/27 02:19:22;;;;;;;7.35;1.90;;;14.50;99.90;;;;;;5002738;28;20206;-83
2023/07/27 02:21:52;;;;;;;6.40;2.00;;;14.50;99.90;;;;;;5024020;28;20218;-84
2023/07/27 02:24:19;;;;;;;4.53;1.67;;;14.50;99.90;;;;;;5025936;28;20186;-84
2023/07/27 02:26:47;;;;;;;7.25;2.00;;;14.40;99.90;;;;;;5026116;28;20832;-83
2023/07/27 02:29:16;;;;;;;6.57;2.00;;;14.50;99.90;;;;;;5027066;28;20193;-83
2023/07/27 02:31:44;;;;;;;5.65;1.90;;;14.50;99.90;;;;;;5010814;28;20243;-84
2023/07/27 02:34:11;;;;;;;7.72;2.22;;;14.50;99.90;;;;;;5024035;28;20573;-83
2023/07/27 02:36:40;;;;;;;9.18;2.13;;;14.50;99.90;;;;;;5025437;28;20305;-83
2023/07/27 02:39:07;;;;;;;5.18;1.88;;;14.50;99.90;;;;;;5026905;28;20214;-83
2023/07/27 02:41:36;;;;;;;7.50;1.85;;;14.60;99.90;;;;;;5033762;28;20816;-83
2023/07/27 02:44:09;;;;;;;5.30;1.85;;;14.50;99.90;;;;;;5026483;28;20218;-83
2023/07/27 02:46:36;;;;;;;3.60;1.80;;;14.40;99.90;;;;;;5027983;28;20242;-83
2023/07/27 02:49:04;;;;;;;6.82;2.15;;;14.30;99.90;;;;;;5026624;28;20188;-83
2023/07/27 02:51:32;;;;;;;7.57;1.75;;;14.30;99.90;;;;;;5028420;28;20190;-83
2023/07/27 02:53:59;;;;;;;5.38;1.90;;;14.40;99.90;;;;;;5028168;28;20190;-83
2023/07/27 02:56:30;;;;;;;5.47;1.60;;;14.40;99.90;;;;;;5024106;28;20190;-84
2023/07/27 02:58:59;;;;;;;4.45;1.42;;;14.50;99.90;;;;;;5026956;28;20201;-83
2023/07/27 03:01:28;;;;;;;8.48;2.13;;;14.50;99.90;;;;;;5037981;28;20725;-83
2023/07/27 03:04:02;;;;;;;9.02;2.00;;;14.50;99.90;;;;;;5025441;28;20190;-84
2023/07/27 03:06:30;;;;;;;4.35;1.83;;;14.50;99.90;;;;;;5032961;28;20202;-83
2023/07/27 03:09:01;;;;;;;4.68;1.58;;;14.60;99.90;;;;;;5026748;28;20277;-83
2023/07/27 03:11:31;;;;;;;6.72;2.35;;;14.60;99.90;;;;;;5026160;28;20198;-84
2023/07/27 03:13:58;;;;;;;5.45;1.92;;;14.50;99.90;;;;;;5009940;28;20194;-84
2023/07/27 03:16:26;;;;;;;4.25;1.48;;;14.50;99.90;;;;;;5026290;28;20200;-84
2023/07/27 03:18:54;;;;;;;8.10;1.75;;;14.60;99.90;;;;;;5026113;28;20286;-84
2023/07/27 03:21:21;;;;;;;4.85;1.77;;;14.60;99.90;;;;;;5027075;28;20563;-84
2023/07/27 03:23:49;;;;;;;5.72;1.70;;;14.50;99.90;;;;;;5026476;28;20183;-84
2023/07/27 03:26:17;;;;;;;6.28;1.60;;;14.50;99.90;;;;;;5022653;28;21085;-84
2023/07/27 03:28:45;;;;;;;5.30;1.85;;;14.50;99.90;;;;;;5039313;28;20201;-83
2023/07/27 03:31:22;;;;;;;6.22;1.92;;;14.50;99.90;;;;;;5026500;28;20193;-83
2023/07/27 03:33:51;;;;;;;4.10;1.65;;;14.60;99.90;;;;;;5026008;28;20193;-83
2023/07/27 03:36:20;;;;;;;2.78;1.90;;;14.50;99.90;;;;;;5036056;28;20255;-84
2023/07/27 03:38:48;;;;;;;5.88;2.17;;;14.50;99.90;;;;;;5039190;28;20642;-84
2023/07/27 03:41:17;;;;;;;7.68;2.17;;;14.50;99.90;;;;;;5026028;28;20196;-83
2023/07/27 03:43:45;;;;;;;5.85;2.35;;;14.40;99.90;;;;;;5025405;28;20225;-83
2023/07/27 03:46:14;;;;;;;8.90;2.22;;;14.40;99.90;;;;;;5027096;28;20695;-84
2023/07/27 03:48:42;;;;;;;6.82;2.42;;;14.40;99.90;;;;;;5027188;28;20655;-84
2023/07/27 03:51:10;;;;;;;7.30;2.22;;;14.40;99.90;;;;;;5024506;28;20229;-84
2023/07/27 03:53:39;;;;;;;8.50;2.45;;;14.40;99.90;;;;;;5026160;28;20212;-84
2023/07/27 03:56:07;;;;;;;7.93;2.20;;;14.40;99.90;;;;;;5016579;28;20198;-84
2023/07/27 03:58:35;;;;;;;4.70;2.20;;;14.40;99.90;;;;;;5017866;28;20809;-84
2023/07/27 04:01:03;;;;;;;5.57;2.00;;;14.40;99.90;;;;;;5010347;28;20201;-85
2023/07/27 04:03:31;;;;;;;6.90;1.80;;;14.40;99.90;;;;;;5010364;28;20664;-83
2023/07/27 04:05:59;;;;;;;4.80;2.00;;;14.50;99.90;;;;;;5026765;28;20208;-83
2023/07/27 04:08:27;;;;;;;3.50;1.73;;;14.60;99.90;;;;;;5024949;28;20223;-84
2023/07/27 04:10:55;;;;;;;6.20;1.80;;;14.70;99.90;;;;;;5035582;28;20611;-83
2023/07/27 04:13:23;;;;;;;5.30;1.92;;;14.80;99.90;;;;;;5026530;28;20201;-84
2023/07/27 04:15:51;;;;;;;5.97;2.13;;;14.80;99.90;;;;;;5023756;28;20202;-84
2023/07/27 04:18:18;;;;;;;6.65;2.13;;;14.70;99.90;;;;;;5025218;28;20210;-84
2023/07/27 04:20:46;;;;;;;8.75;2.20;;;14.70;99.90;;;;;;5026360;28;20178;-84
2023/07/27 04:23:14;;;;;;;9.38;3.08;;;14.70;99.90;;;;;;5026635;28;20242;-84
2023/07/27 04:25:42;;;;;;;7.78;2.08;;;14.60;99.90;;;;;;5034468;28;20190;-84
2023/07/27 04:28:10;;;;;;;6.60;2.10;;;14.60;99.90;;;;;;5019996;28;20190;-84
2023/07/27 04:30:37;;;;;;;9.40;2.22;;;14.70;99.90;;;;;;5027384;28;20205;-84
2023/07/27 04:33:05;;;;;;;4.47;2.10;;;14.70;99.90;;;;;;5026390;28;20198;-83
2023/07/27 04:35:33;;;;;;;7.38;2.20;;;14.70;99.90;;;;;;5033430;28;20201;-84
2023/07/27 04:38:01;;;;;;;5.40;1.90;;;14.70;99.90;;;;;;5025299;28;20201;-83
2023/07/27 04:40:28;;;;;;;11.30;2.60;;;14.70;99.90;;;;;;5024395;28;20186;-84
2023/07/27 04:42:56;;;;;;;6.95;2.55;;;14.60;99.90;;;;;;5026588;28;20290;-84
2023/07/27 04:45:25;;;;;;;4.80;2.08;;;14.60;99.90;;;;;;5024825;28;20230;-84
2023/07/27 04:47:53;;;;;;;4.97;2.08;;;14.60;99.90;;;;;;5025959;27;20194;-84
2023/07/27 04:50:20;;;;;;;5.00;1.80;;;14.70;99.90;;;;;;5008306;28;20659;-83
2023/07/27 04:52:50;;;;;;;8.02;2.50;;;14.70;99.90;;;;;;5024597;28;20708;-84
2023/07/27 04:55:18;;;;;;;4.47;2.17;;;14.70;99.90;;;;;;5024526;28;20336;-84
2023/07/27 04:57:46;;;;;;;6.10;2.70;;;14.80;99.90;;;;;;5024988;28;20276;-84
2023/07/27 05:00:14;;;;;;;5.47;1.60;;;14.80;99.90;;;;;;5025757;28;20193;-84
2023/07/27 05:02:41;;;;;;;7.53;2.13;;;14.80;99.90;;;;;;5034812;28;20243;-83
2023/07/27 05:05:09;;;;;;;5.72;1.80;;;14.90;99.90;;;;;;5025553;28;20213;-83
2023/07/27 05:07:37;;;;;;;3.97;1.88;;;14.90;99.90;;;;;;5025615;28;20190;-83
2023/07/27 05:10:05;;;;;;;5.03;2.75;;;14.90;99.90;;;;;;5035232;28;20307;-84
2023/07/27 05:12:33;;;;;;;3.63;2.10;;;14.90;99.90;;;;;;5022179;28;20218;-84
2023/07/27 05:15:00;;;;;;;6.82;2.28;;;14.90;99.90;;;;;;5025640;28;20192;-84
2023/07/27 05:17:28;;;;;;;5.88;2.20;;;14.90;99.90;;;;;;5023605;28;20247;-84
2023/07/27 05:19:57;;;;;;;7.25;2.20;;;14.90;99.90;;;;;;5022192;28;20210;-83
2023/07/27 05:22:24;;;;;;;5.50;2.42;;;14.90;99.90;;;;;;5023465;28;20193;-84
2023/07/27 05:24:52;;;;;;;9.13;1.98;;;14.90;99.90;;;;;;5024013;28;20190;-84
2023/07/27 05:27:20;;;;;;;5.32;2.28;;;14.90;99.90;;;;;;5024397;28;20727;-84
2023/07/27 05:29:47;;;;;;;6.65;2.47;;;14.90;99.90;;;;;;5025213;28;20206;-84
2023/07/27 05:32:15;;;;;;;4.75;2.28;;;15.00;99.90;;;;;;5024223;28;20194;-83
2023/07/27 05:34:42;;;;;;;7.40;2.20;;;15.00;99.90;;;;;;5025547;28;20297;-84
2023/07/27 05:37:10;;;;;;;6.82;2.13;;;15.10;99.90;;;;;;5029861;28;20272;-83
2023/07/27 05:39:41;;;;;;;5.93;2.10;;;15.00;99.90;;;;;;5024374;28;20827;-84
2023/07/27 05:42:08;;;;;;;4.40;2.08;;;15.10;99.90;;;;;;5023991;28;20213;-83
2023/07/27 05:44:36;;;;;;;8.73;2.05;;;15.10;99.90;;;;;;5023784;28;20306;-84
2023/07/27 05:47:05;;;;;;;5.03;2.17;;;15.10;99.90;;;;;;5022455;28;20281;-83
2023/07/27 05:49:33;;;;;;;6.78;2.45;;;15.10;99.90;;;;;;5025126;28;20194;-84
2023/07/27 05:52:01;;;;;;;5.70;2.05;;;15.20;99.90;;;;;;5031809;28;20797;-83
2023/07/27 05:54:29;;;;;;;6.18;1.70;;;15.20;99.90;;;;;;5025173;28;20186;-84
2023/07/27 05:56:56;;;;;;;6.75;2.03;;;15.20;99.90;;;;;;5025312;28;20731;-84
2023/07/27 05:59:24;;;;;;;7.03;3.10;;;15.30;99.90;;;;;;5023718;28;20722;-83
2023/07/27 06:01:51;;;;;;;4.95;1.70;;;15.30;99.90;;;;;;5024529;28;20696;-83
2023/07/27 06:04:20;;;;;;;5.05;2.00;;;15.30;99.90;;;;;;5023895;28;20196;-83
2023/07/27 06:06:48;;;;;;;6.20;1.70;;;15.40;99.90;;;;;;5024693;28;20652;-83
2023/07/27 06:09:16;;;;;;;4.35;1.80;;;15.40;99.90;;;;;;5024889;28;20190;-84
2023/07/27 06:11:43;;;;;;;8.57;2.08;;;15.40;99.90;;;;;;5023823;28;20186;-84
2023/07/27 06:14:11;;;;;;;5.55;1.98;;;15.40;99.90;;;;;;5025272;28;20186;-83
2023/07/27 06:16:39;;;;;;;8.20;1.85;;;15.40;99.90;;;;;;5024866;28;20187;-84
2023/07/27 06:19:07;;;;;;;4.55;1.90;;;15.50;99.90;;;;;;5024974;28;20274;-84
2023/07/27 06:21:34;;;;;;;7.40;1.85;;;15.60;99.90;;;;;;5025481;28;20588;-84
2023/07/27 06:24:02;;;;;;;8.82;1.80;;;15.60;99.90;;;;;;5027891;28;20192;-83
2023/07/27 06:26:30;;;;;;;5.07;1.83;;;15.60;99.90;;;;;;5034607;28;20241;-83
2023/07/27 06:28:58;;;;;;;7.50;2.05;;;15.60;99.90;;;;;;5027494;28;20239;-83
2023/07/27 06:31:26;;;;;;;7.53;1.88;;;15.60;99.90;;;;;;5028148;28;20659;-84
2023/07/27 06:33:53;;;;;;;4.68;1.70;;;15.60;99.90;;;;;;5026591;28;20194;-83
2023/07/27 06:36:21;;;;;;;8.93;1.98;;;15.60;99.90;;;;;;5028055;28;20205;-83
2023/07/27 06:38:49;;;;;;;6.63;2.20;;;15.60;99.90;;;;;;5031611;28;20202;-82
2023/07/27 06:41:19;;;;;;;5.28;1.88;;;15.60;99.90;;;;;;5026340;28;20618;-84
2023/07/27 06:43:47;;;;;;;4.70;1.85;;;15.60;99.90;;;;;;5028213;28;20229;-84
2023/07/27 06:46:15;;;;;;;8.30;1.65;;;15.60;99.90;;;;;;5032726;28;20233;-84
2023/07/27 06:48:42;;;;;;;7.38;1.90;;;15.60;99.90;;;;;;5027936;28;20194;-84
2023/07/27 06:51:10;;;;;;;5.60;1.60;;;15.60;99.90;;;;;;5027754;28;20197;-84
2023/07/27 06:53:38;;;;;;;5.65;1.90;;;15.60;99.90;;;;;;5007951;28;20609;-84
2023/07/27 06:56:06;;;;;;;6.68;1.65;;;15.60;99.90;;;;;;5022938;28;20194;-83
2023/07/27 06:58:34;;;;;;;5.55;1.83;;;15.70;99.90;;;;;;5025881;28;20210;-84
2023/07/27 07:01:01;;;;;;;3.22;1.70;;;15.70;99.90;;;;;;5022851;28;20186;-83
2023/07/27 07:03:30;;;;;;;3.70;1.90;;;15.70;99.90;;;;;;5027324;28;20194;-84
2023/07/27 07:05:58;;;;;;;5.32;2.25;;;15.70;99.90;;;;;;5026992;28;20190;-84
2023/07/27 07:08:26;;;;;;;5.97;2.40;;;15.70;99.90;;;;;;5027506;28;20225;-84
2023/07/27 07:10:54;;;;;;;8.52;1.92;;;15.80;99.90;;;;;;5027260;28;20289;-83
2023/07/27 07:13:21;;;;;;;5.78;1.70;;;15.80;99.90;;;;;;5027286;28;20194;-84
2023/07/27 07:15:52;;;;;;;4.13;1.50;;;15.90;99.90;;;;;;5027048;28;20210;-83
2023/07/27 07:18:20;;;;;;;4.43;1.63;;;15.90;99.90;;;;;;5024548;28;20201;-83
2023/07/27 07:20:49;;;;;;;8.55;1.98;;;15.90;99.90;;;;;;5027090;28;20186;-82
2023/07/27 07:23:19;;;;;;;3.78;1.67;;;15.90;99.90;;;;;;5027059;28;20186;-83
2023/07/27 07:25:47;;;;;;;7.18;1.95;;;15.90;99.90;;;;;;5024238;28;20806;-82
2023/07/27 07:28:15;;;;;;;7.75;1.90;;;15.90;99.90;;;;;;5023827;28;20178;-83
2023/07/27 07:30:43;;;;;;;3.95;1.80;;;16.00;99.90;;;;;;5018465;28;20193;-83
2023/07/27 07:33:11;;;;;;;5.75;1.80;;;16.00;99.90;;;;;;5023974;28;20195;-83
2023/07/27 07:35:38;;;;;;;5.18;1.98;;;16.00;99.90;;;;;;5026493;28;20667;-83
2023/07/27 07:38:06;;;;;;;5.60;1.73;;;16.00;99.90;;;;;;5025534;28;20212;-83
2023/07/27 07:40:34;;;;;;;7.15;1.90;;;16.00;99.90;;;;;;5026976;28;20663;-84
2023/07/27 07:43:02;;;;;;;7.53;1.50;;;16.00;99.90;;;;;;5027497;28;20194;-83
2023/07/27 07:45:33;;;;;;;5.60;1.50;;;16.00;99.90;;;;;;5041615;28;20217;-84
2023/07/27 07:48:00;;;;;;;5.57;1.52;;;16.00;99.90;;;;;;5026480;28;20190;-84
2023/07/27 07:50:29;;;;;;;4.50;1.75;;;16.00;99.90;;;;;;5025057;28;20190;-83
2023/07/27 07:52:56;;;;;;;4.38;1.77;;;16.00;99.90;;;;;;5017006;28;20233;-83
2023/07/27 07:55:24;;;;;;;4.13;1.75;;;16.00;99.90;;;;;;5024221;28;20854;-84
2023/07/27 07:57:51;;;;;;;6.03;1.65;;;16.00;99.90;;;;;;5026867;28;20186;-84
2023/07/27 08:00:19;;;;;;;7.50;1.83;;;16.00;99.90;;;;;;5024297;28;20363;-84
2023/07/27 08:02:47;;;;;;;4.97;1.70;;;16.10;99.90;;;;;;5021761;28;20192;-83
2023/07/27 08:05:15;;;;;;;5.68;1.65;;;16.00;99.90;;;;;;5026251;28;20193;-84
2023/07/27 08:07:42;;;;;;;6.20;1.60;;;16.10;99.90;;;;;;5026417;28;20194;-84
2023/07/27 08:10:11;;;;;;;4.95;1.30;;;16.00;99.90;;;;;;5026320;28;20201;-83
2023/07/27 08:12:39;;;;;;;4.65;1.50;;;16.10;99.90;;;;;;5026631;28;20559;-83
2023/07/27 08:15:07;;;;;;;5.30;1.85;;;16.10;99.90;;;;;;5026281;28;20266;-83
2023/07/27 08:17:35;;;;;;;3.67;1.60;;;16.00;99.90;;;;;;5025720;28;20665;-83
2023/07/27 08:20:03;;;;;;;3.10;1.60;;;16.00;99.90;;;;;;5028796;28;20202;-84
2023/07/27 08:22:31;;;;;;;5.13;1.38;;;16.00;99.90;;;;;;5018834;28;20886;-83
2023/07/27 08:24:59;;;;;;;5.95;2.00;;;16.10;99.90;;;;;;5040202;28;20205;-83
2023/07/27 08:27:45;;;;;;;6.80;1.70;;;16.10;99.90;;;;;;5026330;28;20188;-83
2023/07/27 08:30:12;;;;;;;10.15;1.83;;;16.00;99.90;;;;;;5025851;28;20280;-83
2023/07/27 08:32:40;;;;;;;3.65;1.60;;;16.10;99.90;;;;;;5025446;28;20186;-84
2023/07/27 08:35:08;;;;;;;5.22;1.40;;;16.10;99.90;;;;;;5034866;28;20277;-84
2023/07/27 08:37:36;;;;;;;5.50;1.67;;;16.10;99.90;;;;;;5024254;28;20193;-84
2023/07/27 08:40:04;;;;;;;8.57;1.83;;;16.20;99.90;;;;;;5024864;28;20289;-83
2023/07/27 08:42:32;;;;;;;6.13;1.63;;;16.20;99.90;;;;;;5025762;28;20182;-83
2023/07/27 08:45:00;;;;;;;3.75;1.75;;;16.30;99.90;;;;;;5024041;28;20226;-83
2023/07/27 08:47:29;;;;;;;5.50;1.67;;;16.30;99.90;;;;;;5026084;28;20941;-84
2023/07/27 08:49:56;;;;;;;3.65;1.67;;;16.30;99.90;;;;;;5025839;28;20198;-83
2023/07/27 08:52:24;;;;;;;3.22;1.25;;;16.30;99.90;;;;;;5026052;27;20198;-83
2023/07/27 08:54:52;;;;;;;4.40;1.52;;;16.40;99.90;;;;;;5025769;28;20188;-84
2023/07/27 08:57:20;;;;;;;5.50;1.65;;;16.40;99.90;;;;;;5023677;28;20186;-84
2023/07/27 08:59:48;;;;;;;3.30;1.35;;;16.40;99.90;;;;;;5020490;28;20737;-84
2023/07/27 09:02:15;;;;;;;4.13;1.50;;;16.30;99.90;;;;;;5020227;28;20191;-83
2023/07/27 09:04:44;;;;;;;2.13;1.30;;;16.40;99.90;;;;;;5021346;28;20240;-83
2023/07/27 09:07:12;;;;;;;4.78;1.60;;;16.40;99.90;;;;;;5025444;27;20715;-83
2023/07/27 09:09:40;;;;;;;4.68;1.52;;;16.50;99.90;;;;;;5021321;28;20202;-83
2023/07/27 09:12:08;;;;;;;3.92;1.40;;;16.50;99.90;;;;;;5025510;28;20254;-83
2023/07/27 09:14:37;;;;;;;3.30;1.42;;;16.40;99.90;;;;;;5025500;28;20670;-84
2023/07/27 09:17:05;;;;;;;3.15;1.65;;;16.50;99.90;;;;;;5027597;28;20186;-83
2023/07/27 09:19:35;;;;;;;6.57;1.55;;;16.40;99.90;;;;;;5020233;28;20680;-83
2023/07/27 09:22:03;;;;;;;3.72;1.75;;;16.50;99.90;;;;;;5008148;28;20197;-83
2023/07/27 09:24:32;;;;;;;3.40;1.42;;;16.60;99.90;;;;;;5025631;28;20272;-84
2023/07/27 09:27:02;;;;;;;5.13;1.48;;;16.50;99.90;;;;;;5025532;28;20190;-83
2023/07/27 09:29:30;;;;;;;4.05;1.63;;;16.60;99.90;;;;;;5034457;28;20189;-83
2023/07/27 09:31:58;;;;;;;5.00;1.73;;;16.70;99.90;;;;;;5024156;28;20200;-83
2023/07/27 09:34:28;;;;;;;6.20;1.40;;;16.60;99.90;;;;;;5037526;28;20200;-84
2023/07/27 09:37:00;;;;;;;5.72;1.80;;;16.70;99.90;;;;;;5033494;28;20186;-83
2023/07/27 09:39:43;;;;;;;3.08;1.65;;;16.60;99.90;;;;;;5017350;28;20210;-84
2023/07/27 09:42:13;;;;;;;3.92;1.55;;;16.60;99.90;;;;;;5012175;28;20261;-83
2023/07/27 09:44:52;;;;;;;4.45;1.40;;;16.70;99.90;;;;;;5007316;28;20221;-82
2023/07/27 09:47:21;;;;;;;5.05;1.65;;;16.70;99.90;;;;;;5025315;28;20655;-84
2023/07/27 09:49:53;;;;;;;2.85;1.25;;;16.80;99.90;;;;;;5015211;28;20302;-83
2023/07/27 09:52:23;;;;;;;3.75;1.20;;;16.90;99.90;;;;;;5020806;28;20206;-83
2023/07/27 09:54:53;;;;;;;4.20;1.40;;;16.80;99.90;;;;;;5024128;28;20201;-83
2023/07/27 09:57:21;;;;;;;3.13;1.13;;;16.90;99.90;;;;;;5025415;28;20190;-83
2023/07/27 09:59:50;;;;;;;2.78;1.10;;;16.80;99.90;;;;;;5028492;28;20205;-84
2023/07/27 10:02:19;;;;;;;3.35;1.23;;;16.90;99.90;;;;;;5036104;28;20567;-84
2023/07/27 10:04:58;;;;;;;3.72;1.40;;;16.90;99.90;;;;;;5026858;28;20778;-85
2023/07/27 10:07:26;;;;;;;3.33;1.45;;;16.90;99.90;;;;;;5026434;28;20199;-84
2023/07/27 10:10:26;;;;;;;3.25;1.17;;;16.90;99.90;;;;;;5027565;28;20211;-83
2023/07/27 10:12:58;;;;;;;6.22;1.33;;;17.00;99.90;;;;;;5028441;28;20733;-83
2023/07/27 10:15:28;;;;;;;4.57;1.50;;;17.10;99.90;;;;;;5016967;28;20198;-83
2023/07/27 10:17:58;;;;;;;2.42;1.20;;;17.00;99.90;;;;;;5028084;28;20603;-83
2023/07/27 10:20:29;;;;;;;2.10;1.10;;;17.10;99.90;;;;;;5027558;28;20209;-84
2023/07/27 10:23:18;;;;;;;4.65;1.05;;;17.10;99.90;;;;;;5028486;28;20189;-83
2023/07/27 10:25:55;;;;;;;4.53;1.25;;;17.00;99.90;;;;;;5028351;28;20186;-83
2023/07/27 10:28:43;;;;;;;3.00;1.20;;;17.00;99.90;;;;;;5027765;28;20190;-83
2023/07/27 10:31:14;;;;;;;5.38;1.20;;;17.00;99.90;;;;;;5017132;28;20754;-83
2023/07/27 10:34:07;;;;;;;3.20;1.35;;;17.00;99.90;;;;;;5027872;28;20679;-83
2023/07/27 10:36:57;;;;;;;2.53;1.20;;;17.00;99.90;;;;;;5020333;28;20653;-84
2023/07/27 10:39:29;;;;;;;7.95;1.70;;;17.00;99.90;;;;;;5019284;28;20190;-83
2023/07/27 10:41:59;;;;;;;5.78;1.40;;;16.90;99.90;;;;;;5032676;28;20341;-83
2023/07/27 10:44:28;;;;;;;5.43;1.73;;;17.10;99.90;;;;;;5025484;28;20321;-84
2023/07/27 10:46:58;;;;;;;2.10;1.35;;;17.10;99.90;;;;;;5026159;28;20324;-83
2023/07/27 10:49:25;;;;;;;2.90;1.25;;;17.10;99.90;;;;;;5027720;28;20187;-83
2023/07/27 10:51:55;;;;;;;4.68;1.50;;;17.10;99.90;;;;;;5026915;28;20201;-84
2023/07/27 10:54:25;;;;;;;5.50;1.60;;;17.20;99.90;;;;;;5026264;28;20186;-83
2023/07/27 10:56:54;;;;;;;3.63;1.42;;;17.20;99.90;;;;;;5025820;27;20189;-84
2023/07/27 10:59:22;;;;;;;4.00;1.53;;;17.20;99.90;;;;;;5026931;28;20302;-84
2023/07/27 11:01:52;;;;;;;5.22;1.33;;;17.20;99.90;;;;;;5028952;28;20597;-84
2023/07/27 11:04:21;;;;;;;5.53;1.58;;;17.20;99.90;;;;;;5041792;28;20728;-84
2023/07/27 11:06:49;;;;;;;2.15;1.35;;;17.10;99.90;;;;;;5027388;28;20186;-83
2023/07/27 11:09:17;;;;;;;4.03;1.70;;;17.10;99.90;;;;;;5024679;28;20406;-85
2023/07/27 11:11:44;;;;;;;7.60;1.92;;;17.30;99.90;;;;;;5027507;28;20194;-84
2023/07/27 11:14:12;;;;;;;4.10;1.50;;;17.30;99.90;;;;;;5027387;27;20273;-84
2023/07/27 11:16:41;;;;;;;4.45;1.58;;;17.30;99.90;;;;;;5019092;28;20550;-84
2023/07/27 11:19:09;;;;;;;5.00;1.73;;;17.30;99.90;;;;;;5025206;28;20686;-84
2023/07/27 11:21:40;;;;;;;3.55;1.70;;;17.30;99.90;;;;;;5027814;28;20213;-84
2023/07/27 11:24:08;;;;;;;2.65;1.42;;;17.20;99.90;;;;;;5027829;28;20186;-84
2023/07/27 11:26:37;;;;;;;5.35;1.60;;;17.30;99.90;;;;;;5027556;28;21005;-84
2023/07/27 11:29:06;;;;;;;2.85;1.40;;;17.20;99.90;;;;;;5027557;28;20190;-84
2023/07/27 11:31:34;;;;;;;3.53;1.60;;;17.20;99.90;;;;;;5027282;28;20652;-84
2023/07/27 11:34:03;;;;;;;3.75;1.50;;;17.30;99.90;;;;;;5027012;28;20735;-83
2023/07/27 11:36:34;;;;;;;6.28;1.55;;;17.30;99.90;;;;;;5017657;28;20244;-83
2023/07/27 11:39:03;;;;;;;4.40;1.60;;;17.30;99.90;;;;;;5026020;28;21007;-83
2023/07/27 11:41:31;;;;;;;3.88;1.73;;;17.30;99.90;;;;;;5026684;28;20756;-84
2023/07/27 11:44:16;;;;;;;8.27;1.75;;;17.30;99.90;;;;;;5024388;28;20228;-83
2023/07/27 11:46:50;;;;;;;3.95;1.88;;;17.30;99.90;;;;;;5026632;28;20189;-84
2023/07/27 11:49:22;;;;;;;6.05;1.63;;;17.30;99.90;;;;;;5015533;28;20285;-84
2023/07/27 11:51:50;;;;;;;6.53;1.58;;;17.30;99.90;;;;;;5019342;28;20192;-84
2023/07/27 11:54:22;;;;;;;3.65;1.80;;;17.30;99.90;;;;;;5026696;28;20193;-85
2023/07/27 11:56:55;;;;;;;2.95;1.75;;;17.30;99.90;;;;;;5025287;28;20194;-84
2023/07/27 11:59:23;;;;;;;5.95;2.00;;;17.40;99.90;;;;;;5031669;28;20218;-84
2023/07/27 12:01:52;;;;;;;2.72;1.60;;;17.50;99.90;;;;;;5026468;28;20205;-84
2023/07/27 12:04:21;;;;;;;5.32;1.75;;;17.50;99.90;;;;;;5026403;28;20230;-84
2023/07/27 12:06:49;;;;;;;4.78;1.70;;;17.40;99.90;;;;;;5026080;28;20190;-84
2023/07/27 12:09:17;;;;;;;4.43;1.75;;;17.30;99.90;;;;;;5026328;28;20766;-83
2023/07/27 12:11:45;;;;;;;5.65;1.95;;;17.30;99.90;;;;;;5026542;28;20193;-83
2023/07/27 12:14:19;;;;;;;4.63;1.80;;;17.30;99.90;;;;;;5020046;28;20190;-83
2023/07/27 12:16:48;;;;;;;2.25;1.40;;;17.30;99.90;;;;;;5025927;27;20235;-83
2023/07/27 12:19:19;;;;;;;7.32;1.80;;;17.20;99.90;;;;;;5020876;28;20199;-84
2023/07/27 12:21:49;;;;;;;3.20;1.33;;;17.10;99.90;;;;;;5016468;28;20198;-84
2023/07/27 12:24:22;;;;;;;3.45;1.40;;;17.20;99.90;;;;;;5025901;28;20269;-84
2023/07/27 12:26:53;;;;;;;2.88;1.40;;;17.30;99.90;;;;;;5040851;28;20193;-82
2023/07/27 12:29:23;;;;;;;4.22;1.77;;;17.30;99.90;;;;;;5024970;28;20281;-84
2023/07/27 12:31:54;;;;;;;3.80;1.50;;;17.20;99.90;;;;;;5026174;28;20666;-84
2023/07/27 12:34:24;;;;;;;3.13;1.35;;;17.20;99.90;;;;;;5025989;28;20190;-83
2023/07/27 12:36:54;;;;;;;4.38;1.48;;;17.20;99.90;;;;;;5025872;28;20190;-84
2023/07/27 12:39:24;;;;;;;4.85;1.45;;;17.20;99.90;;;;;;5017458;28;20185;-84
2023/07/27 12:41:52;;;;;;;5.10;1.42;;;17.10;99.90;;;;;;5031036;28;20278;-84
2023/07/27 12:44:23;;;;;;;2.28;1.30;;;17.10;99.90;;;;;;5026125;28;20230;-84
2023/07/27 12:46:50;;;;;;;2.50;1.05;;;17.10;99.90;;;;;;5021836;28;20198;-85
2023/07/27 12:49:18;;;;;;;2.88;1.23;;;17.10;99.90;;;;;;5026031;28;20193;-84
2023/07/27 12:51:46;;;;;;;5.95;1.60;;;17.10;99.90;;;;;;5026224;28;20213;-83
2023/07/27 12:54:13;;;;;;;1.85;1.10;;;17.00;99.90;;;;;;5021210;28;20203;-84
2023/07/27 12:56:42;;;;;;;2.05;1.13;;;16.90;99.90;;;;;;5022835;28;20280;-83
2023/07/27 12:59:10;;;;;;;2.75;1.30;;;16.90;99.90;;;;;;5025486;28;20241;-84